Maples, Missouri
Current Conditions -  °F | °C
As of 9:23 AM on Wednesday 26 Nov 2014 (Local Time) from KTBN Reporting Station
Light Snow Light Snow  
Wind Chill: 27°   Ceiling: 1700
Heat Index: 32°   Visibility: 2.5mi
Dew Point: 32°   Wind: 5mph
Humidity: 100%   Direction: 180°S
Pressure: 29.98"   Gusts: NA
Location:  37.5023°N, 91.4546°W
Report Text: KTBN 261523Z AUTO 18004KT 2 1/2SM -SN BR OVC017 00/00 A2998 RMK AO2 VIS 2 1/2V3 UPB1457E1500SNE1457B1500
Loading
Personal Weather Stations






























Interactive Weather Map New forecast layout! Learn more

10-Day Weather Forecast

Advertisements
Track Severe Weather on mobile